sensor_id;sensor_type;location;lat;lon;timestamp;P1;durP1;ratioP1;P2;durP2;ratioP2
43086;SDS011;28708;52.224;6.924;2023-05-23T00:01:36;15.23;;;8.67;;
43086;SDS011;28708;52.224;6.924;2023-05-23T00:04:02;13.93;;;8.23;;
43086;SDS011;28708;52.224;6.924;2023-05-23T00:06:28;11.93;;;8.53;;
43086;SDS011;28708;52.224;6.924;2023-05-23T00:08:54;11.97;;;7.73;;
43086;SDS011;28708;52.224;6.924;2023-05-23T00:11:21;14.63;;;7.87;;
43086;SDS011;28708;52.224;6.924;2023-05-23T00:13:51;14.40;;;8.60;;
43086;SDS011;28708;52.224;6.924;2023-05-23T00:16:17;12.60;;;8.17;;
43086;SDS011;28708;52.224;6.924;2023-05-23T00:18:43;16.23;;;9.00;;
43086;SDS011;28708;52.224;6.924;2023-05-23T00:21:10;13.73;;;8.87;;
43086;SDS011;28708;52.224;6.924;2023-05-23T00:23:37;14.57;;;8.83;;
43086;SDS011;28708;52.224;6.924;2023-05-23T00:26:06;14.20;;;9.67;;
43086;SDS011;28708;52.224;6.924;2023-05-23T00:28:38;13.02;;;9.00;;
43086;SDS011;28708;52.224;6.924;2023-05-23T00:31:04;13.00;;;8.90;;
43086;SDS011;28708;52.224;6.924;2023-05-23T00:33:30;16.97;;;10.03;;
43086;SDS011;28708;52.224;6.924;2023-05-23T00:35:57;19.50;;;11.37;;
43086;SDS011;28708;52.224;6.924;2023-05-23T00:38:24;22.47;;;12.67;;
43086;SDS011;28708;52.224;6.924;2023-05-23T00:40:51;20.83;;;12.80;;
43086;SDS011;28708;52.224;6.924;2023-05-23T00:43:16;21.97;;;12.97;;
43086;SDS011;28708;52.224;6.924;2023-05-23T00:45:43;21.00;;;13.23;;
43086;SDS011;28708;52.224;6.924;2023-05-23T00:48:09;23.33;;;13.93;;
43086;SDS011;28708;52.224;6.924;2023-05-23T00:50:36;26.80;;;15.27;;
43086;SDS011;28708;52.224;6.924;2023-05-23T00:53:01;26.53;;;15.83;;
43086;SDS011;28708;52.224;6.924;2023-05-23T00:55:28;27.93;;;16.03;;
43086;SDS011;28708;52.224;6.924;2023-05-23T00:57:55;33.53;;;18.00;;
43086;SDS011;28708;52.224;6.924;2023-05-23T01:00:24;25.93;;;16.30;;
43086;SDS011;28708;52.224;6.924;2023-05-23T01:02:50;31.05;;;16.55;;
43086;SDS011;28708;52.224;6.924;2023-05-23T01:05:17;31.50;;;16.50;;
43086;SDS011;28708;52.224;6.924;2023-05-23T01:07:47;27.73;;;16.88;;
43086;SDS011;28708;52.224;6.924;2023-05-23T01:10:14;29.47;;;16.77;;
43086;SDS011;28708;52.224;6.924;2023-05-23T01:12:55;27.37;;;17.73;;
43086;SDS011;28708;52.224;6.924;2023-05-23T01:15:28;28.13;;;17.17;;
43086;SDS011;28708;52.224;6.924;2023-05-23T01:18:17;28.13;;;15.03;;
43086;SDS011;28708;52.224;6.924;2023-05-23T01:20:52;26.73;;;16.53;;
43086;SDS011;28708;52.224;6.924;2023-05-23T01:26:40;25.83;;;16.45;;
43086;SDS011;28708;52.224;6.924;2023-05-23T01:29:33;27.73;;;17.00;;
43086;SDS011;28708;52.224;6.924;2023-05-23T01:32:03;26.03;;;15.60;;
43086;SDS011;28708;52.224;6.924;2023-05-23T01:34:31;27.13;;;16.50;;
43086;SDS011;28708;52.224;6.924;2023-05-23T01:37:00;27.60;;;16.20;;
43086;SDS011;28708;52.224;6.924;2023-05-23T01:39:26;29.53;;;15.97;;
43086;SDS011;28708;52.224;6.924;2023-05-23T01:41:51;23.00;;;14.63;;
43086;SDS011;28708;52.224;6.924;2023-05-23T01:44:18;22.53;;;16.30;;
43086;SDS011;28708;52.224;6.924;2023-05-23T01:46:46;29.23;;;14.97;;
43086;SDS011;28708;52.224;6.924;2023-05-23T01:49:12;23.40;;;13.53;;
43086;SDS011;28708;52.224;6.924;2023-05-23T01:51:39;19.40;;;12.83;;
43086;SDS011;28708;52.224;6.924;2023-05-23T01:54:05;22.43;;;13.27;;
43086;SDS011;28708;52.224;6.924;2023-05-23T01:56:32;22.33;;;14.57;;
43086;SDS011;28708;52.224;6.924;2023-05-23T01:58:59;25.03;;;13.87;;
43086;SDS011;28708;52.224;6.924;2023-05-23T02:01:26;24.90;;;14.03;;
43086;SDS011;28708;52.224;6.924;2023-05-23T02:03:51;28.50;;;13.90;;
43086;SDS011;28708;52.224;6.924;2023-05-23T02:06:17;20.97;;;13.43;;
43086;SDS011;28708;52.224;6.924;2023-05-23T02:08:45;25.40;;;13.77;;
43086;SDS011;28708;52.224;6.924;2023-05-23T02:11:10;27.37;;;15.03;;
43086;SDS011;28708;52.224;6.924;2023-05-23T02:13:38;26.73;;;14.97;;
43086;SDS011;28708;52.224;6.924;2023-05-23T02:16:03;31.10;;;14.33;;
43086;SDS011;28708;52.224;6.924;2023-05-23T02:18:29;24.37;;;14.97;;
43086;SDS011;28708;52.224;6.924;2023-05-23T02:20:55;24.77;;;14.13;;
43086;SDS011;28708;52.224;6.924;2023-05-23T02:23:21;23.23;;;13.33;;
43086;SDS011;28708;52.224;6.924;2023-05-23T02:25:47;21.70;;;13.27;;
43086;SDS011;28708;52.224;6.924;2023-05-23T02:28:12;21.00;;;11.30;;
43086;SDS011;28708;52.224;6.924;2023-05-23T02:30:38;21.33;;;11.40;;
43086;SDS011;28708;52.224;6.924;2023-05-23T02:33:05;15.83;;;9.57;;
43086;SDS011;28708;52.224;6.924;2023-05-23T02:35:32;16.97;;;9.53;;
43086;SDS011;28708;52.224;6.924;2023-05-23T02:37:58;16.77;;;10.17;;
43086;SDS011;28708;52.224;6.924;2023-05-23T02:40:24;18.57;;;10.17;;
43086;SDS011;28708;52.224;6.924;2023-05-23T02:42:50;16.00;;;9.13;;
43086;SDS011;28708;52.224;6.924;2023-05-23T02:45:16;18.93;;;9.40;;
43086;SDS011;28708;52.224;6.924;2023-05-23T02:47:42;21.90;;;9.70;;
43086;SDS011;28708;52.224;6.924;2023-05-23T02:50:08;16.57;;;8.53;;
43086;SDS011;28708;52.224;6.924;2023-05-23T02:52:34;17.23;;;9.07;;
43086;SDS011;28708;52.224;6.924;2023-05-23T02:55:00;15.43;;;9.40;;
43086;SDS011;28708;52.224;6.924;2023-05-23T02:57:27;17.17;;;9.43;;
43086;SDS011;28708;52.224;6.924;2023-05-23T02:59:54;18.33;;;10.20;;
43086;SDS011;28708;52.224;6.924;2023-05-23T03:02:19;20.20;;;12.30;;
43086;SDS011;28708;52.224;6.924;2023-05-23T03:04:45;24.53;;;12.27;;
43086;SDS011;28708;52.224;6.924;2023-05-23T03:07:12;24.13;;;13.77;;
43086;SDS011;28708;52.224;6.924;2023-05-23T03:09:39;24.87;;;15.20;;
43086;SDS011;28708;52.224;6.924;2023-05-23T03:12:05;27.93;;;13.97;;
43086;SDS011;28708;52.224;6.924;2023-05-23T03:14:30;23.67;;;14.27;;
43086;SDS011;28708;52.224;6.924;2023-05-23T03:16:56;23.60;;;13.70;;
43086;SDS011;28708;52.224;6.924;2023-05-23T03:19:22;23.83;;;13.87;;
43086;SDS011;28708;52.224;6.924;2023-05-23T03:21:48;24.20;;;13.60;;
43086;SDS011;28708;52.224;6.924;2023-05-23T03:24:16;27.00;;;15.17;;
43086;SDS011;28708;52.224;6.924;2023-05-23T03:26:42;26.30;;;14.70;;
43086;SDS011;28708;52.224;6.924;2023-05-23T03:29:10;24.90;;;14.53;;
43086;SDS011;28708;52.224;6.924;2023-05-23T03:31:36;23.90;;;14.03;;
43086;SDS011;28708;52.224;6.924;2023-05-23T03:34:02;27.10;;;14.13;;
43086;SDS011;28708;52.224;6.924;2023-05-23T03:36:30;25.43;;;14.27;;
43086;SDS011;28708;52.224;6.924;2023-05-23T03:38:58;27.90;;;14.23;;
43086;SDS011;28708;52.224;6.924;2023-05-23T03:41:23;28.53;;;14.57;;
43086;SDS011;28708;52.224;6.924;2023-05-23T03:43:50;27.00;;;14.57;;
43086;SDS011;28708;52.224;6.924;2023-05-23T03:46:15;25.17;;;13.77;;
43086;SDS011;28708;52.224;6.924;2023-05-23T03:48:41;23.63;;;14.20;;
43086;SDS011;28708;52.224;6.924;2023-05-23T03:51:07;28.23;;;14.47;;
43086;SDS011;28708;52.224;6.924;2023-05-23T03:53:33;24.87;;;14.00;;
43086;SDS011;28708;52.224;6.924;2023-05-23T03:55:58;29.30;;;13.47;;
43086;SDS011;28708;52.224;6.924;2023-05-23T03:58:24;27.23;;;13.63;;
43086;SDS011;28708;52.224;6.924;2023-05-23T04:00:54;29.48;;;12.80;;
43086;SDS011;28708;52.224;6.924;2023-05-23T04:03:20;25.83;;;12.37;;
43086;SDS011;28708;52.224;6.924;2023-05-23T04:05:46;26.73;;;11.13;;
43086;SDS011;28708;52.224;6.924;2023-05-23T04:08:12;19.17;;;11.27;;
43086;SDS011;28708;52.224;6.924;2023-05-23T04:10:38;24.17;;;10.73;;
43086;SDS011;28708;52.224;6.924;2023-05-23T04:13:04;29.30;;;11.77;;
43086;SDS011;28708;52.224;6.924;2023-05-23T04:15:31;22.70;;;10.47;;
43086;SDS011;28708;52.224;6.924;2023-05-23T04:18:04;24.97;;;11.20;;
43086;SDS011;28708;52.224;6.924;2023-05-23T04:20:31;21.23;;;10.40;;
43086;SDS011;28708;52.224;6.924;2023-05-23T04:22:57;20.50;;;10.53;;
43086;SDS011;28708;52.224;6.924;2023-05-23T04:25:24;19.67;;;10.73;;
43086;SDS011;28708;52.224;6.924;2023-05-23T04:28:02;19.57;;;10.40;;
43086;SDS011;28708;52.224;6.924;2023-05-23T04:30:29;31.03;;;12.33;;
43086;SDS011;28708;52.224;6.924;2023-05-23T04:32:55;23.17;;;11.27;;
43086;SDS011;28708;52.224;6.924;2023-05-23T04:35:24;25.13;;;12.40;;
43086;SDS011;28708;52.224;6.924;2023-05-23T04:37:53;28.87;;;12.07;;
43086;SDS011;28708;52.224;6.924;2023-05-23T04:40:23;29.47;;;12.77;;
43086;SDS011;28708;52.224;6.924;2023-05-23T04:43:03;25.03;;;12.57;;
43086;SDS011;28708;52.224;6.924;2023-05-23T04:45:35;29.37;;;11.33;;
43086;SDS011;28708;52.224;6.924;2023-05-23T04:48:08;30.20;;;13.23;;
43086;SDS011;28708;52.224;6.924;2023-05-23T04:50:40;28.40;;;12.97;;
43086;SDS011;28708;52.224;6.924;2023-05-23T04:53:06;30.53;;;14.10;;
43086;SDS011;28708;52.224;6.924;2023-05-23T04:55:33;29.00;;;12.57;;
43086;SDS011;28708;52.224;6.924;2023-05-23T04:57:59;25.93;;;12.13;;
43086;SDS011;28708;52.224;6.924;2023-05-23T05:00:25;27.00;;;12.47;;
43086;SDS011;28708;52.224;6.924;2023-05-23T05:02:51;27.10;;;11.40;;
43086;SDS011;28708;52.224;6.924;2023-05-23T05:05:17;23.83;;;10.70;;
43086;SDS011;28708;52.224;6.924;2023-05-23T05:07:46;23.77;;;10.50;;
43086;SDS011;28708;52.224;6.924;2023-05-23T05:10:12;20.83;;;10.13;;
43086;SDS011;28708;52.224;6.924;2023-05-23T05:12:42;21.02;;;9.80;;
43086;SDS011;28708;52.224;6.924;2023-05-23T05:15:11;24.48;;;9.48;;
43086;SDS011;28708;52.224;6.924;2023-05-23T05:17:38;20.87;;;10.27;;
43086;SDS011;28708;52.224;6.924;2023-05-23T05:20:07;20.98;;;9.40;;
43086;SDS011;28708;52.224;6.924;2023-05-23T05:22:38;22.53;;;9.07;;
43086;SDS011;28708;52.224;6.924;2023-05-23T05:25:09;22.02;;;9.25;;
43086;SDS011;28708;52.224;6.924;2023-05-23T05:27:35;17.83;;;8.70;;
43086;SDS011;28708;52.224;6.924;2023-05-23T05:30:07;22.23;;;9.77;;
43086;SDS011;28708;52.224;6.924;2023-05-23T05:32:42;17.10;;;9.03;;
43086;SDS011;28708;52.224;6.924;2023-05-23T05:35:10;24.43;;;9.90;;
43086;SDS011;28708;52.224;6.924;2023-05-23T05:37:41;19.40;;;8.47;;
43086;SDS011;28708;52.224;6.924;2023-05-23T05:40:08;22.40;;;9.23;;
43086;SDS011;28708;52.224;6.924;2023-05-23T05:42:36;16.07;;;8.50;;
43086;SDS011;28708;52.224;6.924;2023-05-23T05:45:02;22.80;;;8.47;;
43086;SDS011;28708;52.224;6.924;2023-05-23T05:47:28;22.97;;;8.40;;
43086;SDS011;28708;52.224;6.924;2023-05-23T05:49:54;18.33;;;8.07;;
43086;SDS011;28708;52.224;6.924;2023-05-23T05:52:20;17.90;;;8.90;;
43086;SDS011;28708;52.224;6.924;2023-05-23T05:54:46;23.60;;;8.30;;
43086;SDS011;28708;52.224;6.924;2023-05-23T05:57:11;17.03;;;8.03;;
43086;SDS011;28708;52.224;6.924;2023-05-23T05:59:37;17.47;;;8.27;;
43086;SDS011;28708;52.224;6.924;2023-05-23T06:02:03;26.00;;;8.40;;
43086;SDS011;28708;52.224;6.924;2023-05-23T06:04:29;22.27;;;9.00;;
43086;SDS011;28708;52.224;6.924;2023-05-23T06:06:56;22.63;;;8.20;;
43086;SDS011;28708;52.224;6.924;2023-05-23T06:09:22;18.83;;;8.37;;
43086;SDS011;28708;52.224;6.924;2023-05-23T06:11:48;21.13;;;8.57;;
43086;SDS011;28708;52.224;6.924;2023-05-23T06:14:14;23.67;;;7.90;;
43086;SDS011;28708;52.224;6.924;2023-05-23T06:16:42;18.33;;;7.60;;
43086;SDS011;28708;52.224;6.924;2023-05-23T06:19:08;27.83;;;8.07;;
43086;SDS011;28708;52.224;6.924;2023-05-23T06:21:35;19.80;;;7.27;;
43086;SDS011;28708;52.224;6.924;2023-05-23T06:24:03;14.20;;;6.03;;
43086;SDS011;28708;52.224;6.924;2023-05-23T06:26:29;17.90;;;6.43;;
43086;SDS011;28708;52.224;6.924;2023-05-23T06:28:55;16.47;;;6.80;;
43086;SDS011;28708;52.224;6.924;2023-05-23T06:31:20;17.57;;;6.20;;
43086;SDS011;28708;52.224;6.924;2023-05-23T06:33:46;16.00;;;6.00;;
43086;SDS011;28708;52.224;6.924;2023-05-23T06:36:11;16.93;;;5.13;;
43086;SDS011;28708;52.224;6.924;2023-05-23T06:38:37;11.17;;;4.90;;
43086;SDS011;28708;52.224;6.924;2023-05-23T06:41:04;17.87;;;5.50;;
43086;SDS011;28708;52.224;6.924;2023-05-23T06:43:31;13.77;;;5.70;;
43086;SDS011;28708;52.224;6.924;2023-05-23T06:46:20;10.83;;;5.10;;
43086;SDS011;28708;52.224;6.924;2023-05-23T06:48:45;13.23;;;4.80;;
43086;SDS011;28708;52.224;6.924;2023-05-23T06:51:11;12.20;;;4.83;;
43086;SDS011;28708;52.224;6.924;2023-05-23T06:53:37;12.47;;;5.23;;
43086;SDS011;28708;52.224;6.924;2023-05-23T06:56:03;13.97;;;6.07;;
43086;SDS011;28708;52.224;6.924;2023-05-23T06:58:31;16.77;;;6.47;;
43086;SDS011;28708;52.224;6.924;2023-05-23T07:00:59;25.60;;;11.10;;
43086;SDS011;28708;52.224;6.924;2023-05-23T07:03:31;24.43;;;7.53;;
43086;SDS011;28708;52.224;6.924;2023-05-23T07:06:01;20.02;;;7.05;;
43086;SDS011;28708;52.224;6.924;2023-05-23T07:08:26;20.60;;;6.87;;
43086;SDS011;28708;52.224;6.924;2023-05-23T07:10:56;21.13;;;6.82;;
43086;SDS011;28708;52.224;6.924;2023-05-23T07:13:31;18.70;;;7.17;;
43086;SDS011;28708;52.224;6.924;2023-05-23T07:15:58;19.63;;;7.20;;
43086;SDS011;28708;52.224;6.924;2023-05-23T07:18:23;19.60;;;7.77;;
43086;SDS011;28708;52.224;6.924;2023-05-23T07:20:50;25.47;;;8.77;;
43086;SDS011;28708;52.224;6.924;2023-05-23T07:23:18;21.43;;;7.40;;
43086;SDS011;28708;52.224;6.924;2023-05-23T07:25:45;21.70;;;7.97;;
43086;SDS011;28708;52.224;6.924;2023-05-23T07:28:21;23.63;;;7.73;;
43086;SDS011;28708;52.224;6.924;2023-05-23T07:30:46;19.93;;;7.17;;
43086;SDS011;28708;52.224;6.924;2023-05-23T07:33:12;17.97;;;7.00;;
43086;SDS011;28708;52.224;6.924;2023-05-23T07:35:39;21.63;;;7.63;;
43086;SDS011;28708;52.224;6.924;2023-05-23T07:38:05;19.90;;;7.77;;
43086;SDS011;28708;52.224;6.924;2023-05-23T07:40:31;19.13;;;6.80;;
43086;SDS011;28708;52.224;6.924;2023-05-23T07:42:57;23.67;;;7.93;;
43086;SDS011;28708;52.224;6.924;2023-05-23T07:45:24;21.90;;;7.60;;
43086;SDS011;28708;52.224;6.924;2023-05-23T07:47:50;18.57;;;7.70;;
43086;SDS011;28708;52.224;6.924;2023-05-23T07:50:16;27.40;;;7.83;;
43086;SDS011;28708;52.224;6.924;2023-05-23T07:52:42;21.13;;;7.40;;
43086;SDS011;28708;52.224;6.924;2023-05-23T07:55:11;18.55;;;7.07;;
43086;SDS011;28708;52.224;6.924;2023-05-23T07:57:37;16.83;;;6.87;;
43086;SDS011;28708;52.224;6.924;2023-05-23T08:00:03;19.00;;;7.33;;
43086;SDS011;28708;52.224;6.924;2023-05-23T08:02:40;19.17;;;7.57;;
43086;SDS011;28708;52.224;6.924;2023-05-23T08:05:12;17.63;;;6.50;;
43086;SDS011;28708;52.224;6.924;2023-05-23T08:07:38;17.27;;;6.87;;
43086;SDS011;28708;52.224;6.924;2023-05-23T08:10:04;18.37;;;6.20;;
43086;SDS011;28708;52.224;6.924;2023-05-23T08:12:31;18.30;;;5.67;;
43086;SDS011;28708;52.224;6.924;2023-05-23T08:15:08;13.80;;;6.30;;
43086;SDS011;28708;52.224;6.924;2023-05-23T08:17:39;16.00;;;5.93;;
43086;SDS011;28708;52.224;6.924;2023-05-23T08:20:06;15.17;;;5.70;;
43086;SDS011;28708;52.224;6.924;2023-05-23T08:22:33;15.90;;;5.00;;
43086;SDS011;28708;52.224;6.924;2023-05-23T08:24:59;14.87;;;5.20;;
43086;SDS011;28708;52.224;6.924;2023-05-23T08:27:28;13.50;;;5.07;;
43086;SDS011;28708;52.224;6.924;2023-05-23T08:29:57;10.07;;;5.10;;
43086;SDS011;28708;52.224;6.924;2023-05-23T08:32:23;12.23;;;4.83;;
43086;SDS011;28708;52.224;6.924;2023-05-23T08:34:49;14.97;;;4.87;;
43086;SDS011;28708;52.224;6.924;2023-05-23T08:37:15;12.73;;;5.13;;
43086;SDS011;28708;52.224;6.924;2023-05-23T08:39:41;11.97;;;4.70;;
43086;SDS011;28708;52.224;6.924;2023-05-23T08:42:21;10.90;;;4.60;;
43086;SDS011;28708;52.224;6.924;2023-05-23T08:44:47;19.77;;;5.00;;
43086;SDS011;28708;52.224;6.924;2023-05-23T08:47:13;14.27;;;4.47;;
43086;SDS011;28708;52.224;6.924;2023-05-23T08:49:50;14.20;;;4.03;;
43086;SDS011;28708;52.224;6.924;2023-05-23T08:52:19;17.92;;;3.75;;
43086;SDS011;28708;52.224;6.924;2023-05-23T08:54:51;14.43;;;4.00;;
43086;SDS011;28708;52.224;6.924;2023-05-23T08:57:17;14.77;;;3.83;;
43086;SDS011;28708;52.224;6.924;2023-05-23T08:59:48;13.13;;;3.60;;
43086;SDS011;28708;52.224;6.924;2023-05-23T09:02:16;14.10;;;3.60;;
43086;SDS011;28708;52.224;6.924;2023-05-23T09:04:43;12.63;;;3.30;;
43086;SDS011;28708;52.224;6.924;2023-05-23T09:07:13;10.45;;;2.92;;
43086;SDS011;28708;52.224;6.924;2023-05-23T09:09:41;12.73;;;3.43;;
43086;SDS011;28708;52.224;6.924;2023-05-23T09:12:12;9.77;;;3.33;;
43086;SDS011;28708;52.224;6.924;2023-05-23T09:14:39;12.93;;;4.03;;
43086;SDS011;28708;52.224;6.924;2023-05-23T09:17:07;21.07;;;3.93;;
43086;SDS011;28708;52.224;6.924;2023-05-23T09:19:32;14.60;;;3.40;;
43086;SDS011;28708;52.224;6.924;2023-05-23T09:22:10;11.90;;;3.23;;
43086;SDS011;28708;52.224;6.924;2023-05-23T09:24:49;12.87;;;4.10;;
43086;SDS011;28708;52.224;6.924;2023-05-23T09:27:17;19.10;;;4.23;;
43086;SDS011;28708;52.224;6.924;2023-05-23T09:29:43;20.17;;;4.37;;
43086;SDS011;28708;52.224;6.924;2023-05-23T09:32:10;17.20;;;4.37;;
43086;SDS011;28708;52.224;6.924;2023-05-23T09:34:41;19.53;;;3.90;;
43086;SDS011;28708;52.224;6.924;2023-05-23T09:37:18;22.03;;;4.33;;
43086;SDS011;28708;52.224;6.924;2023-05-23T09:39:48;21.27;;;4.40;;
43086;SDS011;28708;52.224;6.924;2023-05-23T09:42:20;16.37;;;3.73;;
43086;SDS011;28708;52.224;6.924;2023-05-23T09:44:49;17.50;;;3.37;;
43086;SDS011;28708;52.224;6.924;2023-05-23T09:47:15;18.63;;;3.57;;
43086;SDS011;28708;52.224;6.924;2023-05-23T09:49:45;15.23;;;3.13;;
43086;SDS011;28708;52.224;6.924;2023-05-23T09:52:11;17.25;;;3.80;;
43086;SDS011;28708;52.224;6.924;2023-05-23T09:54:37;16.43;;;3.77;;
43086;SDS011;28708;52.224;6.924;2023-05-23T09:57:10;15.85;;;2.97;;
43086;SDS011;28708;52.224;6.924;2023-05-23T09:59:40;18.85;;;4.38;;
43086;SDS011;28708;52.224;6.924;2023-05-23T10:02:12;20.70;;;4.13;;
43086;SDS011;28708;52.224;6.924;2023-05-23T10:04:40;16.90;;;3.47;;
43086;SDS011;28708;52.224;6.924;2023-05-23T10:07:13;19.00;;;4.10;;
43086;SDS011;28708;52.224;6.924;2023-05-23T10:09:49;21.27;;;4.32;;
43086;SDS011;28708;52.224;6.924;2023-05-23T10:15:04;18.07;;;3.60;;
43086;SDS011;28708;52.224;6.924;2023-05-23T10:20:27;16.93;;;2.97;;
43086;SDS011;28708;52.224;6.924;2023-05-23T10:23:00;18.43;;;4.00;;
43086;SDS011;28708;52.224;6.924;2023-05-23T10:25:27;16.33;;;3.63;;
43086;SDS011;28708;52.224;6.924;2023-05-23T10:27:54;13.43;;;3.37;;
43086;SDS011;28708;52.224;6.924;2023-05-23T10:30:26;15.02;;;3.10;;
43086;SDS011;28708;52.224;6.924;2023-05-23T10:32:53;18.58;;;3.75;;
43086;SDS011;28708;52.224;6.924;2023-05-23T10:41:10;16.60;;;3.50;;
43086;SDS011;28708;52.224;6.924;2023-05-23T10:43:50;12.97;;;3.03;;
43086;SDS011;28708;52.224;6.924;2023-05-23T10:46:30;10.97;;;3.30;;
43086;SDS011;28708;52.224;6.924;2023-05-23T10:49:22;13.82;;;3.53;;
43086;SDS011;28708;52.224;6.924;2023-05-23T10:52:01;21.77;;;3.72;;
43086;SDS011;28708;52.224;6.924;2023-05-23T10:54:27;11.80;;;3.25;;
43086;SDS011;28708;52.224;6.924;2023-05-23T10:57:09;11.90;;;3.53;;
43086;SDS011;28708;52.224;6.924;2023-05-23T10:59:37;16.20;;;3.47;;
43086;SDS011;28708;52.224;6.924;2023-05-23T11:02:04;16.07;;;3.67;;
43086;SDS011;28708;52.224;6.924;2023-05-23T11:04:37;15.30;;;3.97;;
43086;SDS011;28708;52.224;6.924;2023-05-23T11:07:03;17.47;;;3.60;;
43086;SDS011;28708;52.224;6.924;2023-05-23T11:09:28;17.93;;;4.10;;
43086;SDS011;28708;52.224;6.924;2023-05-23T11:12:01;16.57;;;3.90;;
43086;SDS011;28708;52.224;6.924;2023-05-23T11:16:58;12.90;;;3.23;;
43086;SDS011;28708;52.224;6.924;2023-05-23T11:19:26;14.43;;;3.77;;
43086;SDS011;28708;52.224;6.924;2023-05-23T11:24:22;13.93;;;3.37;;
43086;SDS011;28708;52.224;6.924;2023-05-23T11:26:56;11.17;;;3.60;;
43086;SDS011;28708;52.224;6.924;2023-05-23T11:29:26;14.07;;;3.17;;
43086;SDS011;28708;52.224;6.924;2023-05-23T11:31:53;14.13;;;3.63;;
43086;SDS011;28708;52.224;6.924;2023-05-23T11:34:20;12.33;;;3.30;;
43086;SDS011;28708;52.224;6.924;2023-05-23T11:36:46;17.27;;;3.73;;
43086;SDS011;28708;52.224;6.924;2023-05-23T11:39:16;17.53;;;3.50;;
43086;SDS011;28708;52.224;6.924;2023-05-23T11:41:43;18.60;;;4.17;;
43086;SDS011;28708;52.224;6.924;2023-05-23T11:44:12;14.10;;;3.53;;
43086;SDS011;28708;52.224;6.924;2023-05-23T11:46:38;14.88;;;3.70;;
43086;SDS011;28708;52.224;6.924;2023-05-23T11:49:10;15.10;;;3.53;;
43086;SDS011;28708;52.224;6.924;2023-05-23T11:51:36;17.60;;;3.60;;
43086;SDS011;28708;52.224;6.924;2023-05-23T11:54:02;14.10;;;3.60;;
43086;SDS011;28708;52.224;6.924;2023-05-23T11:56:28;16.83;;;3.47;;
43086;SDS011;28708;52.224;6.924;2023-05-23T11:58:53;13.63;;;3.20;;
43086;SDS011;28708;52.224;6.924;2023-05-23T12:01:21;11.83;;;2.80;;
43086;SDS011;28708;52.224;6.924;2023-05-23T12:03:55;18.10;;;4.17;;
43086;SDS011;28708;52.224;6.924;2023-05-23T12:06:21;15.00;;;3.47;;
43086;SDS011;28708;52.224;6.924;2023-05-23T12:08:52;15.33;;;3.47;;
43086;SDS011;28708;52.224;6.924;2023-05-23T12:11:18;16.20;;;3.70;;
43086;SDS011;28708;52.224;6.924;2023-05-23T12:13:44;17.07;;;3.70;;
43086;SDS011;28708;52.224;6.924;2023-05-23T12:16:12;11.00;;;2.80;;
43086;SDS011;28708;52.224;6.924;2023-05-23T12:18:41;12.45;;;3.33;;
43086;SDS011;28708;52.224;6.924;2023-05-23T12:21:07;13.97;;;2.87;;
43086;SDS011;28708;52.224;6.924;2023-05-23T12:23:33;12.47;;;3.63;;
43086;SDS011;28708;52.224;6.924;2023-05-23T12:26:00;13.67;;;3.17;;
43086;SDS011;28708;52.224;6.924;2023-05-23T12:28:39;14.32;;;3.35;;
43086;SDS011;28708;52.224;6.924;2023-05-23T12:33:41;12.73;;;3.10;;
43086;SDS011;28708;52.224;6.924;2023-05-23T12:36:25;14.93;;;3.13;;
43086;SDS011;28708;52.224;6.924;2023-05-23T12:39:01;12.30;;;3.10;;
43086;SDS011;28708;52.224;6.924;2023-05-23T12:41:27;13.63;;;2.83;;
43086;SDS011;28708;52.224;6.924;2023-05-23T12:43:53;19.13;;;3.57;;
43086;SDS011;28708;52.224;6.924;2023-05-23T12:46:21;8.53;;;2.33;;
43086;SDS011;28708;52.224;6.924;2023-05-23T12:51:16;15.47;;;3.03;;
43086;SDS011;28708;52.224;6.924;2023-05-23T12:53:42;15.00;;;3.03;;
43086;SDS011;28708;52.224;6.924;2023-05-23T12:56:08;10.57;;;2.80;;
43086;SDS011;28708;52.224;6.924;2023-05-23T12:58:34;11.97;;;3.10;;
43086;SDS011;28708;52.224;6.924;2023-05-23T13:01:00;10.80;;;2.50;;
43086;SDS011;28708;52.224;6.924;2023-05-23T13:03:26;13.47;;;3.00;;
43086;SDS011;28708;52.224;6.924;2023-05-23T13:05:55;15.37;;;2.70;;
43086;SDS011;28708;52.224;6.924;2023-05-23T13:08:21;14.10;;;3.17;;
43086;SDS011;28708;52.224;6.924;2023-05-23T13:10:47;13.33;;;2.87;;
43086;SDS011;28708;52.224;6.924;2023-05-23T13:13:13;16.10;;;3.00;;
43086;SDS011;28708;52.224;6.924;2023-05-23T13:15:39;15.40;;;3.13;;
43086;SDS011;28708;52.224;6.924;2023-05-23T13:18:05;16.13;;;2.90;;
43086;SDS011;28708;52.224;6.924;2023-05-23T13:20:31;14.93;;;3.63;;
43086;SDS011;28708;52.224;6.924;2023-05-23T13:22:56;10.47;;;2.73;;
43086;SDS011;28708;52.224;6.924;2023-05-23T13:25:23;11.33;;;2.40;;
43086;SDS011;28708;52.224;6.924;2023-05-23T13:27:49;10.60;;;2.20;;
43086;SDS011;28708;52.224;6.924;2023-05-23T13:30:15;15.23;;;3.03;;
43086;SDS011;28708;52.224;6.924;2023-05-23T13:32:41;7.87;;;2.30;;
43086;SDS011;28708;52.224;6.924;2023-05-23T13:35:06;12.43;;;3.17;;
43086;SDS011;28708;52.224;6.924;2023-05-23T13:37:32;13.13;;;2.77;;
43086;SDS011;28708;52.224;6.924;2023-05-23T13:40:00;24.93;;;3.33;;
43086;SDS011;28708;52.224;6.924;2023-05-23T13:42:27;13.73;;;2.88;;
43086;SDS011;28708;52.224;6.924;2023-05-23T13:44:53;10.30;;;2.17;;
43086;SDS011;28708;52.224;6.924;2023-05-23T13:47:19;15.63;;;2.70;;
43086;SDS011;28708;52.224;6.924;2023-05-23T13:49:44;10.87;;;2.53;;
43086;SDS011;28708;52.224;6.924;2023-05-23T13:52:10;10.53;;;2.47;;
43086;SDS011;28708;52.224;6.924;2023-05-23T13:54:36;9.63;;;2.33;;
43086;SDS011;28708;52.224;6.924;2023-05-23T13:57:02;15.83;;;4.77;;
43086;SDS011;28708;52.224;6.924;2023-05-23T13:59:28;7.70;;;2.20;;
43086;SDS011;28708;52.224;6.924;2023-05-23T14:01:54;12.97;;;3.07;;
43086;SDS011;28708;52.224;6.924;2023-05-23T14:04:19;14.97;;;3.27;;
43086;SDS011;28708;52.224;6.924;2023-05-23T14:06:45;13.40;;;2.70;;
43086;SDS011;28708;52.224;6.924;2023-05-23T14:09:11;12.20;;;3.07;;
43086;SDS011;28708;52.224;6.924;2023-05-23T14:11:37;11.37;;;3.30;;
43086;SDS011;28708;52.224;6.924;2023-05-23T14:14:03;15.57;;;2.93;;
43086;SDS011;28708;52.224;6.924;2023-05-23T14:16:29;12.47;;;2.80;;
43086;SDS011;28708;52.224;6.924;2023-05-23T14:18:55;13.17;;;3.27;;
43086;SDS011;28708;52.224;6.924;2023-05-23T14:21:20;18.27;;;3.27;;
43086;SDS011;28708;52.224;6.924;2023-05-23T14:23:46;13.90;;;3.20;;
43086;SDS011;28708;52.224;6.924;2023-05-23T14:26:12;16.60;;;2.80;;
43086;SDS011;28708;52.224;6.924;2023-05-23T14:28:38;13.50;;;2.93;;
43086;SDS011;28708;52.224;6.924;2023-05-23T14:31:03;18.53;;;3.20;;
43086;SDS011;28708;52.224;6.924;2023-05-23T14:33:29;19.57;;;3.23;;
43086;SDS011;28708;52.224;6.924;2023-05-23T14:35:55;11.70;;;2.80;;
43086;SDS011;28708;52.224;6.924;2023-05-23T14:38:20;10.33;;;2.53;;
43086;SDS011;28708;52.224;6.924;2023-05-23T14:40:46;12.03;;;2.87;;
43086;SDS011;28708;52.224;6.924;2023-05-23T14:43:13;12.07;;;2.87;;
43086;SDS011;28708;52.224;6.924;2023-05-23T14:45:39;11.37;;;2.70;;
43086;SDS011;28708;52.224;6.924;2023-05-23T14:48:06;10.30;;;2.67;;
43086;SDS011;28708;52.224;6.924;2023-05-23T14:50:34;18.70;;;3.53;;
43086;SDS011;28708;52.224;6.924;2023-05-23T14:53:00;10.33;;;2.13;;
43086;SDS011;28708;52.224;6.924;2023-05-23T14:55:26;13.00;;;2.50;;
43086;SDS011;28708;52.224;6.924;2023-05-23T14:57:51;13.33;;;2.83;;
43086;SDS011;28708;52.224;6.924;2023-05-23T15:00:17;14.37;;;3.20;;